createdAt,value
2022-12-18T00:07:20.868Z,31
2022-12-18T00:17:22.869Z,37
2022-12-18T00:27:29.255Z,36
2022-12-18T00:37:34.226Z,35
2022-12-18T00:47:40.663Z,33
2022-12-18T00:57:45.181Z,32
2022-12-18T01:07:52.436Z,35
2022-12-18T01:17:57.779Z,36
2022-12-18T01:28:04.328Z,31
2022-12-18T01:38:10.482Z,33
2022-12-18T01:48:17.234Z,33
2022-12-18T01:58:24.379Z,34
2022-12-18T02:08:31.697Z,30
2022-12-18T02:18:38.366Z,32
2022-12-18T02:28:44.331Z,34
2022-12-18T02:38:49.087Z,38
2022-12-18T02:48:54.640Z,31
2022-12-18T02:59:00.728Z,28
2022-12-18T03:09:04.653Z,27
2022-12-18T03:19:17.578Z,27
2022-12-18T03:29:16.631Z,28
2022-12-18T03:39:20.985Z,29
2022-12-18T03:49:28.792Z,27
2022-12-18T03:59:35.708Z,27
2022-12-18T04:09:40.547Z,28
2022-12-18T04:19:45.601Z,23
2022-12-18T04:29:50.456Z,28
2022-12-18T04:39:58.139Z,24
2022-12-18T04:50:03.899Z,25
2022-12-18T05:00:09.981Z,28
2022-12-18T05:10:14.483Z,23
2022-12-18T05:20:19.578Z,23
2022-12-18T05:30:25.420Z,21
2022-12-18T05:40:30.977Z,22
2022-12-18T05:50:35.571Z,22
2022-12-18T06:00:41.448Z,22
2022-12-18T06:10:45.361Z,28
2022-12-18T06:20:53.086Z,23
2022-12-18T06:30:58.456Z,25
2022-12-18T06:41:05.999Z,28
2022-12-18T06:51:13.281Z,28
2022-12-18T07:01:17.922Z,32
2022-12-18T07:11:33.204Z,30
2022-12-18T07:21:30.974Z,31
2022-12-18T07:31:38.148Z,29
2022-12-18T07:41:47.710Z,28
2022-12-18T07:51:47.954Z,27
2022-12-18T08:01:58.782Z,28
2022-12-18T08:12:01.534Z,28
2022-12-18T08:22:09.235Z,29
2022-12-18T08:32:16.737Z,32
2022-12-18T08:42:21.466Z,31
2022-12-18T08:52:26.938Z,25
2022-12-18T09:02:32.142Z,24
2022-12-18T09:12:34.912Z,24
2022-12-18T09:22:40.967Z,20
2022-12-18T09:32:53.736Z,23
2022-12-18T09:42:54.924Z,27
2022-12-18T09:53:00.260Z,24
2022-12-18T10:03:07.520Z,19
2022-12-18T10:13:11.474Z,30
2022-12-18T10:23:19.612Z,27
2022-12-18T10:33:27.067Z,29
2022-12-18T10:43:31.733Z,29
2022-12-18T10:53:37.880Z,25
2022-12-18T11:03:45.558Z,30
2022-12-18T11:13:50.597Z,29
2022-12-18T11:23:54.814Z,32
2022-12-18T11:34:29.697Z,33
2022-12-18T11:44:22.739Z,28
2022-12-18T11:54:30.138Z,27
2022-12-18T12:04:36.614Z,31
2022-12-18T12:14:41.150Z,27
2022-12-18T12:24:47.249Z,29
2022-12-18T12:35:03.670Z,33
2022-12-18T12:45:06.711Z,30
2022-12-18T12:55:15.199Z,31
2022-12-18T13:05:17.997Z,27
2022-12-18T13:15:21.848Z,34
2022-12-18T13:25:30.072Z,27
2022-12-18T13:35:32.559Z,33
2022-12-18T13:45:39.971Z,35
2022-12-18T13:55:45.525Z,35
2022-12-18T14:05:53.496Z,34
2022-12-18T14:15:57.154Z,32
2022-12-18T14:26:06.445Z,41
2022-12-18T14:36:07.341Z,39
2022-12-18T14:46:19.517Z,37
2022-12-18T14:56:19.319Z,35
2022-12-18T15:06:26.229Z,35
2022-12-18T15:16:32.077Z,51
2022-12-18T15:26:37.526Z,32
2022-12-18T15:36:41.008Z,61
2022-12-18T15:46:49.493Z,43
2022-12-18T15:56:55.773Z,37
2022-12-18T16:07:22.872Z,54
2022-12-18T16:17:18.417Z,46
2022-12-18T16:27:23.712Z,61
2022-12-18T16:37:35.719Z,65
2022-12-18T16:47:34.896Z,48
2022-12-18T16:57:39.363Z,51
2022-12-18T17:07:44.064Z,39
2022-12-18T17:18:11.719Z,47
2022-12-18T17:28:03.320Z,56
2022-12-18T17:38:09.833Z,42
2022-12-18T17:48:15.864Z,46
2022-12-18T17:58:19.996Z,41
2022-12-18T18:08:28.210Z,42
2022-12-18T18:18:30.296Z,59
2022-12-18T18:28:37.543Z,52
2022-12-18T18:38:48.777Z,43
2022-12-18T18:48:46.534Z,44
2022-12-18T18:59:32.441Z,37
2022-12-18T19:09:35.178Z,34
2022-12-18T19:19:52.719Z,36
2022-12-18T19:29:47.023Z,42
2022-12-18T19:39:52.896Z,38
2022-12-18T19:50:00.900Z,40
2022-12-18T20:00:04.559Z,40
2022-12-18T20:10:15.095Z,39
2022-12-18T20:20:17.253Z,38
2022-12-18T20:30:24.384Z,41
2022-12-18T20:40:32.662Z,36
2022-12-18T20:50:35.791Z,39
2022-12-18T21:00:44.437Z,36
2022-12-18T21:10:50.651Z,35
2022-12-18T21:21:00.965Z,65
2022-12-18T21:31:06.906Z,37
2022-12-18T21:41:05.515Z,30
2022-12-18T21:51:10.211Z,30
2022-12-18T22:01:20.129Z,24
2022-12-18T22:11:23.740Z,24
2022-12-18T22:21:30.141Z,27
2022-12-18T22:31:42.533Z,25
2022-12-18T22:41:41.306Z,20
2022-12-18T22:51:46.980Z,38
2022-12-18T23:01:58.894Z,38
2022-12-18T23:11:59.884Z,38
2022-12-18T23:22:12.126Z,29
2022-12-18T23:32:10.607Z,25
2022-12-18T23:42:18.298Z,30
2022-12-18T23:52:24.997Z,16
